createdAt,value
2019-04-10T00:02:15.406Z,11.45
2019-04-10T00:06:52.177Z,12.18
2019-04-10T00:11:29.018Z,10.28
2019-04-10T00:16:05.607Z,11.05
2019-04-10T00:20:41.462Z,9.60
2019-04-10T00:25:17.216Z,12.37
2019-04-10T00:29:53.053Z,9.88
2019-04-10T00:34:29.670Z,10.90
2019-04-10T00:39:08.670Z,11.00
2019-04-10T00:43:44.469Z,14.45
2019-04-10T00:48:20.262Z,12.78
2019-04-10T00:52:56.748Z,15.50
2019-04-10T00:57:32.565Z,11.08
2019-04-10T01:02:08.593Z,10.38
2019-04-10T01:06:44.409Z,12.18
2019-04-10T01:11:21.065Z,13.48
2019-04-10T01:15:56.926Z,10.10
2019-04-10T01:20:33.369Z,13.25
2019-04-10T01:25:10.278Z,14.73
2019-04-10T01:29:46.168Z,12.53
2019-04-10T01:34:22.186Z,13.08
2019-04-10T01:38:58.033Z,15.03
2019-04-10T01:43:33.804Z,11.95
2019-04-10T01:48:10.045Z,12.98
2019-04-10T01:52:47.063Z,13.20
2019-04-10T01:57:24.038Z,13.48
2019-04-10T02:02:18.818Z,13.98
2019-04-10T02:06:54.576Z,14.60
2019-04-10T02:11:30.908Z,14.80
2019-04-10T02:16:06.788Z,11.10
2019-04-10T02:20:43.134Z,12.37
2019-04-10T02:25:19.922Z,15.48
2019-04-10T02:29:55.836Z,17.62
2019-04-10T02:34:32.733Z,15.68
2019-04-10T02:39:23.038Z,14.00
2019-04-10T02:43:47.334Z,12.75
2019-04-10T02:48:23.491Z,13.78
2019-04-10T02:53:01.202Z,15.00
2019-04-10T02:57:38.593Z,14.70
2019-04-10T03:02:16.073Z,17.57
2019-04-10T03:06:53.364Z,13.95
2019-04-10T03:11:31.097Z,13.13
2019-04-10T03:16:07.479Z,15.03
2019-04-10T03:20:44.642Z,16.77
2019-04-10T03:25:21.231Z,13.53
2019-04-10T03:29:57.124Z,15.80
2019-04-10T03:34:37.778Z,21.25
2019-04-10T03:39:10.774Z,15.65
2019-04-10T03:43:46.656Z,17.17
2019-04-10T03:48:23.080Z,16.77
2019-04-10T03:53:00.081Z,18.60
2019-04-10T03:57:36.457Z,15.23
2019-04-10T04:02:13.625Z,16.82
2019-04-10T04:06:50.240Z,19.92
2019-04-10T04:11:26.165Z,16.60
2019-04-10T04:16:02.245Z,19.48
2019-04-10T04:20:39.108Z,19.00
2019-04-10T04:25:15.017Z,18.32
2019-04-10T04:29:51.876Z,15.88
2019-04-10T04:34:27.779Z,16.62
2019-04-10T04:39:17.995Z,17.77
2019-04-10T04:43:44.461Z,17.30
2019-04-10T04:48:19.620Z,20.23
2019-04-10T04:52:55.433Z,20.35
2019-04-10T04:57:33.817Z,19.77
2019-04-10T05:02:08.666Z,19.60
2019-04-10T05:06:44.475Z,17.52
2019-04-10T05:11:20.496Z,20.10
2019-04-10T05:15:57.333Z,18.02
2019-04-10T05:20:44.134Z,23.25
2019-04-10T05:25:11.118Z,26.65
2019-04-10T05:29:47.184Z,19.92
2019-04-10T05:34:23.041Z,23.95
2019-04-10T05:38:59.984Z,17.95
2019-04-10T05:43:36.236Z,21.40
2019-04-10T05:48:12.067Z,20.43
2019-04-10T05:52:47.910Z,23.75
2019-04-10T05:57:24.587Z,23.18
2019-04-10T06:02:01.079Z,22.45
2019-04-10T06:06:36.877Z,22.58
2019-04-10T06:11:13.665Z,27.62
2019-04-10T06:15:50.711Z,23.80
2019-04-10T06:20:26.625Z,21.87
2019-04-10T06:25:03.967Z,21.68
2019-04-10T06:29:39.872Z,18.55
2019-04-10T06:34:17.577Z,20.95
2019-04-10T06:38:53.155Z,20.90
2019-04-10T06:43:28.958Z,30.00
2019-04-10T06:48:04.790Z,19.55
2019-04-10T06:52:40.992Z,21.95
2019-04-10T06:57:16.885Z,21.73
2019-04-10T07:01:56.095Z,22.22
2019-04-10T07:06:45.192Z,19.95
2019-04-10T07:11:10.246Z,24.75
2019-04-10T07:15:46.625Z,19.90
2019-04-10T07:20:22.701Z,22.10
2019-04-10T07:24:58.506Z,18.82
2019-04-10T07:29:34.318Z,19.60
2019-04-10T07:34:10.969Z,23.70
2019-04-10T07:38:46.932Z,18.30
2019-04-10T07:43:26.150Z,22.02
2019-04-10T07:48:00.388Z,19.12
2019-04-10T07:52:37.179Z,23.40
2019-04-10T07:57:16.018Z,19.40
2019-04-10T08:01:49.496Z,19.98
2019-04-10T08:06:25.682Z,22.27
2019-04-10T08:11:01.656Z,20.77
2019-04-10T08:15:37.905Z,19.55
2019-04-10T08:20:13.788Z,23.27
2019-04-10T08:24:49.557Z,20.60
2019-04-10T08:29:26.022Z,23.20
2019-04-10T08:34:01.885Z,19.98
2019-04-10T08:38:38.123Z,22.98
2019-04-10T08:43:13.960Z,22.02
2019-04-10T08:47:50.716Z,22.48
2019-04-10T08:52:26.607Z,19.62
2019-04-10T08:57:03.280Z,18.92
2019-04-10T09:01:39.698Z,23.15
2019-04-10T09:06:17.426Z,29.32
2019-04-10T09:10:54.466Z,18.05
2019-04-10T09:15:30.329Z,24.12
2019-04-10T09:20:06.690Z,27.32
2019-04-10T09:24:42.543Z,23.98
2019-04-10T09:29:18.380Z,25.40
2019-04-10T09:33:54.153Z,22.22
2019-04-10T09:38:30.629Z,23.42
2019-04-10T09:43:07.344Z,26.85
2019-04-10T09:47:43.867Z,24.70
2019-04-10T09:52:19.786Z,25.65
2019-04-10T09:56:55.565Z,28.10
2019-04-10T10:01:31.447Z,26.17
2019-04-10T10:06:07.312Z,30.85
2019-04-10T10:10:43.107Z,28.77
2019-04-10T10:15:19.173Z,29.25
2019-04-10T10:19:55.343Z,29.32
2019-04-10T10:24:31.210Z,34.27
2019-04-10T10:29:06.997Z,31.42
2019-04-10T10:33:42.762Z,30.48
2019-04-10T10:38:19.021Z,29.00
2019-04-10T10:42:56.066Z,28.90
2019-04-10T10:47:32.542Z,25.57
2019-04-10T10:52:09.038Z,26.90
2019-04-10T10:56:44.923Z,22.45
2019-04-10T11:01:20.689Z,25.77
2019-04-10T11:05:56.480Z,23.77
2019-04-10T11:10:32.265Z,22.30
2019-04-10T11:15:08.181Z,25.05
2019-04-10T11:19:45.568Z,22.42
2019-04-10T11:24:22.743Z,24.43
2019-04-10T11:28:58.593Z,23.73
2019-04-10T11:33:34.802Z,22.98
2019-04-10T11:38:10.961Z,22.48
2019-04-10T11:42:47.106Z,21.62
2019-04-10T11:47:24.839Z,23.32
2019-04-10T11:52:01.839Z,18.55
2019-04-10T11:56:38.516Z,13.72
2019-04-10T12:01:14.697Z,13.85
2019-04-10T12:05:51.937Z,12.33
2019-04-10T12:15:06.757Z,12.95
2019-04-10T12:19:42.537Z,16.67
2019-04-10T12:24:18.349Z,13.58
2019-04-10T12:28:54.201Z,15.50
2019-04-10T12:33:29.986Z,17.50
2019-04-10T12:38:09.725Z,16.17
2019-04-10T12:42:44.142Z,18.67
2019-04-10T12:47:20.013Z,17.95
2019-04-10T12:51:56.316Z,19.35
2019-04-10T12:56:32.455Z,12.23
2019-04-10T13:01:08.772Z,15.08
2019-04-10T13:05:45.233Z,16.95
2019-04-10T13:10:21.077Z,14.75
2019-04-10T13:14:57.137Z,14.50
2019-04-10T13:19:34.168Z,15.25
2019-04-10T13:24:11.107Z,17.77
2019-04-10T13:28:47.686Z,16.35
2019-04-10T13:33:24.596Z,15.03
2019-04-10T13:38:01.089Z,18.17
2019-04-10T13:42:37.255Z,13.22
2019-04-10T13:47:13.392Z,11.85
2019-04-10T13:51:50.165Z,15.40
2019-04-10T13:56:26.012Z,8.03
2019-04-10T14:01:03.018Z,11.30
2019-04-10T14:05:39.117Z,9.50
2019-04-10T14:10:15.924Z,11.63
2019-04-10T14:14:51.688Z,11.93
2019-04-10T14:19:29.880Z,10.63
2019-04-10T14:24:05.882Z,11.68
2019-04-10T14:28:42.985Z,9.98
2019-04-10T14:33:19.120Z,9.15
2019-04-10T14:37:54.965Z,7.50
2019-04-10T14:42:30.733Z,12.58
2019-04-10T14:47:06.586Z,10.85
2019-04-10T14:51:42.351Z,9.85
2019-04-10T14:56:18.125Z,7.45
2019-04-10T15:00:55.009Z,8.40
2019-04-10T15:05:30.833Z,13.13
2019-04-10T15:10:07.116Z,16.60
2019-04-10T15:14:43.684Z,14.40
2019-04-10T15:19:20.516Z,12.45
2019-04-10T15:23:57.281Z,16.23
2019-04-10T15:28:33.926Z,13.65
2019-04-10T15:33:10.125Z,14.15
2019-04-10T15:37:47.042Z,15.98
2019-04-10T15:42:23.854Z,13.93
2019-04-10T15:47:10.633Z,13.90
2019-04-10T15:51:37.130Z,15.38
2019-04-10T15:56:13.775Z,15.75
2019-04-10T16:00:50.239Z,17.37
2019-04-10T16:05:26.312Z,17.17
2019-04-10T16:10:14.779Z,14.78
2019-04-10T16:14:50.714Z,21.75
2019-04-10T16:19:40.978Z,19.37
2019-04-10T16:24:17.448Z,21.05
2019-04-10T16:28:53.650Z,20.27
2019-04-10T16:33:29.532Z,21.27
2019-04-10T16:38:06.844Z,14.23
2019-04-10T16:42:43.638Z,13.55
2019-04-10T16:47:19.717Z,16.57
2019-04-10T16:51:56.605Z,15.00
2019-04-10T16:56:32.502Z,15.15
2019-04-10T17:01:08.500Z,14.78
2019-04-10T17:05:44.329Z,25.60
2019-04-10T17:10:24.503Z,30.65
2019-04-10T17:14:59.603Z,31.50
2019-04-10T17:19:46.521Z,32.17
2019-04-10T17:24:13.375Z,36.80
2019-04-10T17:28:50.320Z,28.47
2019-04-10T17:33:26.798Z,29.05
2019-04-10T17:38:04.625Z,28.50
2019-04-10T17:42:41.034Z,30.25
2019-04-10T17:47:16.929Z,32.65
2019-04-10T17:51:52.903Z,27.65
2019-04-10T17:56:28.669Z,26.05
2019-04-10T18:01:06.884Z,24.55
2019-04-10T18:05:42.732Z,26.87
2019-04-10T18:10:18.559Z,23.07
2019-04-10T18:14:55.453Z,25.32
2019-04-10T18:19:32.290Z,26.87
2019-04-10T18:24:08.251Z,27.30
2019-04-10T18:28:44.114Z,24.50
2019-04-10T18:33:20.413Z,26.10
2019-04-10T18:37:58.338Z,25.75
2019-04-10T18:42:33.748Z,21.45
2019-04-10T18:47:09.548Z,22.10
2019-04-10T18:51:45.940Z,21.77
2019-04-10T18:56:21.824Z,23.60
2019-04-10T19:01:16.121Z,20.68
2019-04-10T19:05:56.300Z,21.23
2019-04-10T19:10:32.615Z,20.65
2019-04-10T19:15:08.687Z,21.82
2019-04-10T19:19:45.405Z,21.97
2019-04-10T19:24:23.082Z,22.60
2019-04-10T19:28:59.217Z,23.95
2019-04-10T19:33:35.274Z,21.87
2019-04-10T19:38:11.466Z,22.62
2019-04-10T19:42:49.364Z,24.90
2019-04-10T19:47:28.444Z,25.37
2019-04-10T19:52:15.996Z,27.82
2019-04-10T19:56:52.990Z,26.30
2019-04-10T20:01:31.219Z,29.98
2019-04-10T20:06:07.800Z,29.80
2019-04-10T20:10:44.196Z,33.30
2019-04-10T20:15:20.548Z,35.50
2019-04-10T20:19:57.327Z,37.50
2019-04-10T20:24:34.689Z,35.78
2019-04-10T20:29:12.874Z,35.58
2019-04-10T20:33:49.981Z,36.03
2019-04-10T20:38:27.341Z,35.98
2019-04-10T20:43:04.832Z,37.58
2019-04-10T20:47:42.102Z,34.48
2019-04-10T20:52:20.014Z,34.25
2019-04-10T20:56:57.204Z,32.80
2019-04-10T21:01:35.108Z,32.13
2019-04-10T21:06:11.433Z,37.17
2019-04-10T21:10:49.057Z,40.78
2019-04-10T21:15:25.794Z,45.58
2019-04-10T21:20:02.637Z,41.33
2019-04-10T21:24:38.496Z,43.35
2019-04-10T21:34:21.934Z,55.67
2019-04-10T21:38:57.848Z,56.48
2019-04-10T21:43:34.584Z,51.18
2019-04-10T21:48:10.552Z,56.48
2019-04-10T21:52:47.508Z,56.77
2019-04-10T21:57:24.262Z,52.30
2019-04-10T22:02:00.590Z,52.55
2019-04-10T22:06:59.285Z,54.53
2019-04-10T22:11:35.209Z,47.45
2019-04-10T22:16:13.552Z,55.00
2019-04-10T22:20:50.085Z,55.38
2019-04-10T22:25:25.912Z,57.90
2019-04-10T22:30:02.822Z,54.15
2019-04-10T22:34:38.737Z,55.52
2019-04-10T22:39:16.708Z,51.83
2019-04-10T22:43:52.796Z,60.92
2019-04-10T22:48:28.774Z,61.55
2019-04-10T22:53:04.750Z,62.30
2019-04-10T22:57:41.558Z,61.70
2019-04-10T23:02:17.572Z,65.45
2019-04-10T23:06:53.542Z,68.40
2019-04-10T23:11:35.303Z,67.37
2019-04-10T23:16:09.324Z,67.67
2019-04-10T23:20:45.120Z,67.50
2019-04-10T23:25:20.986Z,67.15
2019-04-10T23:29:56.980Z,72.27
2019-04-10T23:34:32.845Z,70.50
2019-04-10T23:39:10.018Z,68.97
2019-04-10T23:43:46.135Z,71.05
2019-04-10T23:48:22.512Z,77.15
2019-04-10T23:52:58.419Z,71.60
2019-04-10T23:57:34.281Z,72.55
